createdAt,value
2018-06-11T00:01:58.177Z,16.10
2018-06-11T00:04:26.795Z,16.10
2018-06-11T00:06:55.358Z,16.10
2018-06-11T00:09:24.336Z,16.20
2018-06-11T00:11:52.978Z,16.10
2018-06-11T00:14:21.720Z,16.00
2018-06-11T00:16:50.371Z,15.90
2018-06-11T00:19:18.971Z,15.90
2018-06-11T00:21:47.637Z,15.90
2018-06-11T00:24:16.271Z,15.90
2018-06-11T00:26:44.877Z,15.90
2018-06-11T00:29:13.509Z,15.80
2018-06-11T00:31:42.133Z,15.90
2018-06-11T00:34:10.765Z,15.90
2018-06-11T00:36:39.397Z,15.90
2018-06-11T00:39:08.787Z,15.90
2018-06-11T00:41:37.466Z,16.00
2018-06-11T00:44:06.074Z,15.90
2018-06-11T00:46:34.654Z,15.90
2018-06-11T00:49:03.272Z,15.90
2018-06-11T00:51:31.873Z,15.90
2018-06-11T00:54:00.596Z,15.90
2018-06-11T00:56:29.252Z,15.90
2018-06-11T00:58:57.858Z,15.90
2018-06-11T01:01:26.460Z,15.90
2018-06-11T01:03:55.039Z,15.90
2018-06-11T01:06:23.734Z,15.90
2018-06-11T01:08:52.337Z,15.90
2018-06-11T01:11:20.942Z,15.90
2018-06-11T01:13:49.514Z,15.90
2018-06-11T01:16:18.106Z,15.80
2018-06-11T01:18:46.755Z,15.80
2018-06-11T01:21:15.377Z,15.70
2018-06-11T01:23:43.975Z,15.70
2018-06-11T01:26:12.615Z,15.70
2018-06-11T01:28:41.268Z,15.80
2018-06-11T01:31:09.906Z,15.80
2018-06-11T01:33:38.487Z,15.80
2018-06-11T01:36:07.049Z,15.80
2018-06-11T01:38:35.712Z,15.70
2018-06-11T01:41:04.291Z,15.70
2018-06-11T01:43:33.012Z,15.70
2018-06-11T01:46:01.659Z,15.60
2018-06-11T01:48:30.245Z,15.60
2018-06-11T01:50:58.801Z,15.70
2018-06-11T01:53:27.390Z,15.60
2018-06-11T01:55:56.027Z,15.60
2018-06-11T01:58:24.729Z,15.60
2018-06-11T02:00:53.325Z,15.60
2018-06-11T02:03:21.994Z,15.60
2018-06-11T02:05:50.595Z,15.60
2018-06-11T02:08:19.229Z,15.50
2018-06-11T02:10:47.830Z,15.50
2018-06-11T02:13:16.461Z,15.40
2018-06-11T02:15:45.163Z,15.40
2018-06-11T02:18:13.767Z,15.30
2018-06-11T02:20:42.427Z,15.40
2018-06-11T02:23:11.068Z,15.40
2018-06-11T02:25:39.737Z,15.40
2018-06-11T02:28:08.375Z,15.40
2018-06-11T02:30:37.028Z,15.40
2018-06-11T02:33:05.687Z,15.40
2018-06-11T02:35:34.323Z,15.50
2018-06-11T02:38:02.944Z,15.60
2018-06-11T02:40:31.562Z,15.60
2018-06-11T02:43:00.181Z,15.60
2018-06-11T02:45:28.799Z,15.60
2018-06-11T02:47:57.381Z,15.60
2018-06-11T02:50:26.019Z,15.70
2018-06-11T02:52:54.674Z,15.70
2018-06-11T02:55:23.294Z,15.60
2018-06-11T02:57:51.927Z,15.70
2018-06-11T03:00:20.646Z,15.80
2018-06-11T03:02:49.321Z,15.90
2018-06-11T03:05:18.026Z,15.90
2018-06-11T03:07:46.586Z,15.90
2018-06-11T03:10:15.256Z,15.90
2018-06-11T03:12:43.880Z,16.00
2018-06-11T03:15:12.478Z,16.10
2018-06-11T03:17:41.086Z,16.10
2018-06-11T03:20:09.706Z,16.10
2018-06-11T03:22:38.344Z,16.10
2018-06-11T03:25:06.993Z,16.10
2018-06-11T03:30:03.892Z,16.20
2018-06-11T03:32:32.536Z,16.20
2018-06-11T03:35:01.207Z,16.20
2018-06-11T03:37:29.788Z,16.30
2018-06-11T03:39:58.367Z,16.30
2018-06-11T03:42:27.085Z,16.30
2018-06-11T03:47:23.942Z,16.30
2018-06-11T03:49:52.677Z,16.30
2018-06-11T03:52:21.270Z,16.20
2018-06-11T03:54:49.911Z,16.10
2018-06-11T03:57:18.506Z,16.00
2018-06-11T03:59:47.162Z,16.00
2018-06-11T04:02:15.778Z,15.90
2018-06-11T04:04:44.411Z,15.80
2018-06-11T04:07:13.118Z,15.80
2018-06-11T04:09:41.827Z,15.80
2018-06-11T04:12:10.496Z,15.60
2018-06-11T04:14:39.103Z,15.60
2018-06-11T04:17:07.767Z,15.50
2018-06-11T04:19:36.585Z,15.50
2018-06-11T04:22:06.136Z,15.50
2018-06-11T04:24:34.767Z,15.50
2018-06-11T04:27:03.409Z,15.50
2018-06-11T04:29:32.016Z,15.50
2018-06-11T04:32:00.629Z,15.60
2018-06-11T04:34:29.282Z,15.60
2018-06-11T04:36:57.977Z,15.60
2018-06-11T04:39:26.586Z,15.60
2018-06-11T04:41:55.176Z,15.60
2018-06-11T04:44:23.809Z,15.60
2018-06-11T04:46:52.398Z,15.70
2018-06-11T04:49:21.093Z,15.70
2018-06-11T04:51:49.746Z,15.80
2018-06-11T04:54:18.302Z,15.70
2018-06-11T04:56:46.873Z,15.60
2018-06-11T04:59:15.485Z,15.60
2018-06-11T05:01:44.125Z,15.50
2018-06-11T05:04:12.726Z,15.40
2018-06-11T05:06:41.308Z,15.40
2018-06-11T05:09:09.884Z,15.50
2018-06-11T05:14:07.277Z,15.50
2018-06-11T05:16:35.936Z,15.60
2018-06-11T05:19:04.626Z,15.60
2018-06-11T05:21:33.256Z,15.50
2018-06-11T05:24:01.913Z,15.60
2018-06-11T05:26:30.628Z,15.60
2018-06-11T05:28:59.317Z,15.70
2018-06-11T05:31:27.969Z,15.70
2018-06-11T05:33:56.608Z,15.90
2018-06-11T05:36:25.240Z,15.90
2018-06-11T05:38:53.954Z,15.80
2018-06-11T05:41:22.566Z,15.80
2018-06-11T05:43:51.205Z,15.70
2018-06-11T05:46:19.833Z,15.70
2018-06-11T05:48:48.472Z,15.60
2018-06-11T05:51:17.078Z,15.70
2018-06-11T05:53:45.695Z,15.70
2018-06-11T05:56:14.335Z,15.80
2018-06-11T05:58:43.029Z,15.80
2018-06-11T06:01:11.639Z,15.90
2018-06-11T06:03:40.331Z,15.90
2018-06-11T06:06:09.015Z,15.80
2018-06-11T06:08:37.623Z,15.90
2018-06-11T06:11:06.266Z,16.00
2018-06-11T06:13:35.027Z,16.10
2018-06-11T06:16:03.820Z,16.10
2018-06-11T06:18:32.483Z,16.10
2018-06-11T06:21:01.088Z,16.10
2018-06-11T06:23:29.895Z,16.20
2018-06-11T06:25:58.580Z,16.30
2018-06-11T06:28:27.190Z,16.30
2018-06-11T06:30:55.894Z,16.40
2018-06-11T06:33:24.529Z,16.40
2018-06-11T06:35:53.157Z,16.60
2018-06-11T06:38:21.835Z,16.60
2018-06-11T06:40:50.626Z,16.60
2018-06-11T06:43:19.308Z,16.80
2018-06-11T06:45:48.036Z,16.90
2018-06-11T06:48:16.653Z,17.00
2018-06-11T06:50:45.297Z,17.00
2018-06-11T06:53:13.947Z,17.10
2018-06-11T06:55:42.519Z,17.20
2018-06-11T06:58:11.105Z,17.40
2018-06-11T07:00:39.698Z,17.50
2018-06-11T07:03:08.350Z,17.50
2018-06-11T07:05:37.016Z,17.60
2018-06-11T07:08:05.692Z,17.80
2018-06-11T07:10:34.377Z,17.80
2018-06-11T07:13:09.380Z,17.80
2018-06-11T07:15:38.006Z,17.70
2018-06-11T07:18:06.699Z,17.70
2018-06-11T07:20:36.044Z,17.50
2018-06-11T07:23:04.727Z,17.60
2018-06-11T07:25:33.356Z,17.60
2018-06-11T07:28:02.088Z,17.60
2018-06-11T07:30:31.079Z,17.80
2018-06-11T07:32:59.676Z,17.90
2018-06-11T07:35:28.290Z,18.00
2018-06-11T07:37:56.930Z,17.90
2018-06-11T07:40:25.536Z,18.00
2018-06-11T07:42:54.120Z,18.10
2018-06-11T07:45:22.712Z,18.20
2018-06-11T07:47:51.334Z,18.50
2018-06-11T07:50:19.913Z,18.80
2018-06-11T07:52:48.908Z,19.10
2018-06-11T07:55:17.550Z,19.30
2018-06-11T07:57:46.161Z,19.20
2018-06-11T08:00:14.823Z,19.50
2018-06-11T08:02:43.414Z,19.60
2018-06-11T08:05:12.110Z,19.70
2018-06-11T08:07:40.833Z,19.60
2018-06-11T08:10:09.560Z,19.70
2018-06-11T08:12:38.128Z,19.60
2018-06-11T08:15:06.821Z,19.60
2018-06-11T08:17:35.555Z,19.70
2018-06-11T08:20:04.297Z,19.70
2018-06-11T08:22:32.880Z,19.60
2018-06-11T08:25:01.539Z,19.50
2018-06-11T08:27:30.166Z,19.50
2018-06-11T08:29:58.798Z,19.40
2018-06-11T08:32:27.409Z,19.50
2018-06-11T08:34:56.025Z,19.40
2018-06-11T08:37:24.711Z,19.40
2018-06-11T08:39:53.334Z,19.50
2018-06-11T08:42:21.964Z,19.10
2018-06-11T08:44:50.603Z,19.20
2018-06-11T08:47:19.307Z,19.30
2018-06-11T08:49:47.936Z,19.40
2018-06-11T08:52:16.522Z,19.20
2018-06-11T08:54:45.126Z,19.30
2018-06-11T08:57:13.797Z,19.20
2018-06-11T08:59:42.409Z,19.40
2018-06-11T09:02:11.173Z,19.50
2018-06-11T09:04:39.850Z,19.60
2018-06-11T09:07:08.652Z,19.60
2018-06-11T09:09:37.253Z,19.60
2018-06-11T09:12:06.143Z,19.50
2018-06-11T09:14:34.695Z,19.50
2018-06-11T09:17:03.327Z,19.60
2018-06-11T09:19:31.961Z,19.70
2018-06-11T09:22:01.564Z,19.90
2018-06-11T09:24:30.211Z,20.00
2018-06-11T09:26:58.890Z,20.20
2018-06-11T09:29:27.511Z,20.40
2018-06-11T09:31:56.088Z,20.40
2018-06-11T09:34:24.671Z,20.10
2018-06-11T09:36:54.193Z,19.90
2018-06-11T09:39:22.932Z,20.10
2018-06-11T09:41:51.618Z,20.10
2018-06-11T09:44:20.540Z,20.20
2018-06-11T09:46:49.084Z,20.20
2018-06-11T09:51:45.974Z,20.30
2018-06-11T09:54:14.697Z,20.40
2018-06-11T09:56:43.331Z,20.30
2018-06-11T09:59:12.651Z,20.10
2018-06-11T10:01:41.259Z,20.10
2018-06-11T10:04:09.857Z,20.40
2018-06-11T10:06:38.477Z,20.80
2018-06-11T10:09:08.590Z,21.10
2018-06-11T10:11:37.221Z,21.30
2018-06-11T10:14:06.002Z,21.40
2018-06-11T10:16:34.658Z,21.70
2018-06-11T10:19:03.438Z,21.40
2018-06-11T10:21:31.996Z,21.30
2018-06-11T10:24:00.599Z,21.30
2018-06-11T10:26:29.518Z,21.10
2018-06-11T10:28:58.206Z,21.10
2018-06-11T10:31:26.934Z,21.10
2018-06-11T10:33:55.512Z,21.20
2018-06-11T10:36:24.194Z,21.50
2018-06-11T10:38:52.794Z,21.60
2018-06-11T10:41:21.422Z,21.50
2018-06-11T10:43:50.025Z,21.40
2018-06-11T10:46:18.696Z,21.50
2018-06-11T10:48:47.314Z,21.50
2018-06-11T10:51:16.264Z,21.30
2018-06-11T10:53:44.921Z,21.00
2018-06-11T10:56:14.027Z,21.00
2018-06-11T10:58:44.615Z,21.10
2018-06-11T11:01:13.249Z,21.30
2018-06-11T11:03:42.346Z,21.50
2018-06-11T11:06:11.009Z,21.50
2018-06-11T11:08:39.618Z,21.50
2018-06-11T11:11:08.213Z,21.50
2018-06-11T11:13:36.830Z,21.50
2018-06-11T11:16:05.578Z,21.70
2018-06-11T11:18:34.185Z,21.90
2018-06-11T11:21:02.869Z,22.00
2018-06-11T11:23:31.492Z,22.00
2018-06-11T11:26:00.112Z,22.00
2018-06-11T11:28:28.699Z,21.80
2018-06-11T11:30:57.258Z,22.00
2018-06-11T11:33:25.936Z,22.00
2018-06-11T11:35:54.469Z,21.90
2018-06-11T11:38:23.082Z,21.90
2018-06-11T11:40:51.661Z,21.90
2018-06-11T11:43:20.312Z,21.90
2018-06-11T11:45:48.933Z,21.90
2018-06-11T11:48:17.545Z,22.00
2018-06-11T11:50:46.189Z,21.90
2018-06-11T11:53:14.773Z,22.00
2018-06-11T11:55:43.937Z,22.10
2018-06-11T11:58:12.511Z,22.10
2018-06-11T12:03:10.372Z,21.90
2018-06-11T12:05:39.016Z,22.10
2018-06-11T12:08:07.601Z,22.10
2018-06-11T12:10:36.308Z,22.30
2018-06-11T12:13:04.925Z,22.20
2018-06-11T12:15:33.684Z,22.10
2018-06-11T12:18:02.332Z,22.10
2018-06-11T12:20:30.930Z,22.10
2018-06-11T12:23:00.019Z,22.20
2018-06-11T12:25:28.669Z,22.30
2018-06-11T12:27:57.230Z,22.30
2018-06-11T12:30:25.859Z,22.40
2018-06-11T12:32:54.455Z,22.50
2018-06-11T12:35:23.074Z,22.50
2018-06-11T12:37:51.690Z,22.60
2018-06-11T12:40:20.293Z,22.60
2018-06-11T12:42:48.822Z,22.60
2018-06-11T12:45:17.462Z,22.80
2018-06-11T12:50:14.852Z,22.20
2018-06-11T12:52:43.550Z,22.30
2018-06-11T12:55:12.155Z,22.30
2018-06-11T12:57:40.803Z,22.20
2018-06-11T13:00:09.078Z,22.10
2018-06-11T13:02:37.769Z,22.20
2018-06-11T13:05:06.716Z,22.10
2018-06-11T13:07:35.404Z,22.30
2018-06-11T13:10:04.134Z,22.30
2018-06-11T13:12:32.739Z,22.30
2018-06-11T13:15:01.357Z,22.50
2018-06-11T13:17:30.043Z,22.50
2018-06-11T13:19:58.692Z,22.60
2018-06-11T13:22:27.325Z,22.70
2018-06-11T13:24:56.025Z,22.80
2018-06-11T13:27:24.909Z,22.80
2018-06-11T13:29:53.531Z,22.70
2018-06-11T13:32:22.729Z,22.70
2018-06-11T13:34:51.388Z,22.80
2018-06-11T13:37:20.023Z,23.00
2018-06-11T13:39:48.710Z,23.10
2018-06-11T13:42:17.371Z,23.20
2018-06-11T13:44:46.122Z,23.30
2018-06-11T13:47:14.780Z,23.40
2018-06-11T13:49:43.646Z,23.40
2018-06-11T13:52:12.215Z,23.40
2018-06-11T13:54:41.754Z,23.30
2018-06-11T13:57:11.245Z,23.20
2018-06-11T13:59:39.928Z,23.10
2018-06-11T14:02:08.840Z,23.00
2018-06-11T14:04:37.458Z,23.00
2018-06-11T14:07:06.270Z,23.00
2018-06-11T14:12:03.313Z,23.00
2018-06-11T14:14:32.020Z,23.00
2018-06-11T14:17:00.738Z,23.00
2018-06-11T14:19:29.447Z,23.10
2018-06-11T14:21:58.047Z,23.20
2018-06-11T14:24:26.758Z,23.30
2018-06-11T14:29:23.665Z,23.30
2018-06-11T14:31:52.390Z,23.30
2018-06-11T14:34:21.057Z,23.20
2018-06-11T14:36:50.742Z,23.30
2018-06-11T14:39:19.388Z,23.30
2018-06-11T14:41:47.951Z,23.50
2018-06-11T14:44:16.696Z,23.50
2018-06-11T14:46:45.735Z,23.50
2018-06-11T14:49:14.410Z,23.50
2018-06-11T14:51:43.115Z,23.70
2018-06-11T14:54:12.220Z,23.90
2018-06-11T14:56:40.884Z,23.90
2018-06-11T14:59:09.590Z,23.80
2018-06-11T15:01:38.269Z,23.70
2018-06-11T15:04:07.018Z,23.70
2018-06-11T15:06:35.667Z,23.80
2018-06-11T15:09:06.217Z,23.80
2018-06-11T15:11:34.989Z,23.80
2018-06-11T15:14:03.767Z,23.90
2018-06-11T15:16:32.519Z,24.10
2018-06-11T15:19:02.238Z,24.20
2018-06-11T15:21:30.961Z,24.20
2018-06-11T15:23:59.593Z,24.30
2018-06-11T15:26:28.320Z,24.30
2018-06-11T15:28:57.117Z,24.20
2018-06-11T15:31:25.772Z,24.30
2018-06-11T15:33:55.381Z,24.30
2018-06-11T15:36:23.974Z,24.40
2018-06-11T15:41:20.914Z,24.00
2018-06-11T15:43:49.703Z,23.80
2018-06-11T15:46:18.303Z,23.70
2018-06-11T15:51:15.319Z,23.80
2018-06-11T15:53:43.904Z,23.90
2018-06-11T15:56:12.534Z,24.00
2018-06-11T15:58:41.374Z,24.00
2018-06-11T16:01:10.242Z,23.90
2018-06-11T16:03:38.843Z,23.80
2018-06-11T16:06:07.660Z,23.60
2018-06-11T16:08:36.374Z,23.60
2018-06-11T16:11:05.237Z,23.60
2018-06-11T16:13:33.971Z,23.60
2018-06-11T16:16:02.610Z,23.50
2018-06-11T16:18:31.328Z,23.30
2018-06-11T16:21:00.040Z,23.20
2018-06-11T16:23:28.806Z,23.20
2018-06-11T16:25:57.680Z,23.20
2018-06-11T16:28:26.461Z,23.20
2018-06-11T16:30:57.137Z,23.20
2018-06-11T16:33:25.770Z,23.30
2018-06-11T16:35:54.937Z,23.30
2018-06-11T16:38:23.571Z,23.20
2018-06-11T16:40:52.376Z,23.10
2018-06-11T16:43:21.127Z,23.10
2018-06-11T16:45:49.784Z,23.00
2018-06-11T16:48:18.421Z,23.00
2018-06-11T16:53:15.656Z,22.80
2018-06-11T16:55:44.353Z,22.80
2018-06-11T16:58:12.989Z,22.80
2018-06-11T17:00:41.686Z,22.70
2018-06-11T17:03:10.329Z,22.70
2018-06-11T17:05:39.069Z,22.80
2018-06-11T17:08:07.704Z,22.80
2018-06-11T17:10:36.595Z,22.80
2018-06-11T17:13:05.369Z,22.80
2018-06-11T17:15:34.141Z,22.60
2018-06-11T17:18:02.814Z,22.60
2018-06-11T17:20:31.471Z,22.60
2018-06-11T17:23:00.158Z,22.60
2018-06-11T17:25:28.826Z,22.60
2018-06-11T17:27:57.552Z,22.60
2018-06-11T17:30:26.316Z,22.60
2018-06-11T17:32:55.146Z,22.50
2018-06-11T17:35:23.880Z,22.50
2018-06-11T17:37:52.619Z,22.50
2018-06-11T17:40:23.086Z,22.50
2018-06-11T17:42:51.891Z,22.40
2018-06-11T17:45:20.498Z,22.40
2018-06-11T17:47:49.283Z,22.50
2018-06-11T17:50:18.825Z,22.50
2018-06-11T17:52:47.622Z,22.50
2018-06-11T17:55:16.338Z,22.40
2018-06-11T17:57:45.742Z,22.40
2018-06-11T18:00:14.534Z,22.20
2018-06-11T18:02:43.253Z,22.20
2018-06-11T18:05:12.265Z,22.20
2018-06-11T18:07:41.003Z,22.10
2018-06-11T18:10:09.707Z,22.10
2018-06-11T18:15:06.705Z,22.00
2018-06-11T18:17:35.400Z,21.90
2018-06-11T18:20:04.304Z,21.90
2018-06-11T18:22:32.910Z,21.80
2018-06-11T18:27:30.029Z,21.60
2018-06-11T18:29:58.691Z,21.50
2018-06-11T18:32:27.419Z,21.50
2018-06-11T18:34:56.030Z,21.40
2018-06-11T18:37:24.886Z,21.40
2018-06-11T18:39:53.479Z,21.40
2018-06-11T18:42:23.308Z,21.30
2018-06-11T18:44:52.071Z,21.20
2018-06-11T18:47:21.168Z,21.20
2018-06-11T18:49:49.877Z,21.10
2018-06-11T18:52:18.506Z,21.10
2018-06-11T18:54:47.395Z,21.00
2018-06-11T18:57:16.393Z,21.00
2018-06-11T18:59:45.774Z,21.00
2018-06-11T19:02:14.374Z,21.00
2018-06-11T19:04:42.996Z,21.00
2018-06-11T19:07:11.680Z,20.90
2018-06-11T19:09:40.464Z,21.00
2018-06-11T19:12:09.219Z,20.90
2018-06-11T19:14:37.898Z,20.90
2018-06-11T19:17:06.701Z,20.90
2018-06-11T19:19:35.734Z,20.90
2018-06-11T19:22:04.409Z,20.90
2018-06-11T19:24:33.193Z,20.80
2018-06-11T19:27:01.948Z,20.90
2018-06-11T19:29:30.590Z,20.90
2018-06-11T19:31:59.477Z,20.80
2018-06-11T19:34:28.226Z,20.80
2018-06-11T19:36:56.841Z,20.80
2018-06-11T19:39:25.506Z,20.80
2018-06-11T19:41:54.161Z,20.90
2018-06-11T19:44:23.265Z,20.80
2018-06-11T19:46:52.002Z,20.80
2018-06-11T19:49:20.683Z,20.90
2018-06-11T19:51:49.282Z,20.90
2018-06-11T19:54:19.880Z,20.80
2018-06-11T19:56:48.595Z,20.70
2018-06-11T19:59:17.209Z,20.70
2018-06-11T20:01:46.090Z,20.60
2018-06-11T20:04:14.748Z,20.50
2018-06-11T20:06:43.421Z,20.60
2018-06-11T20:09:12.100Z,20.50
2018-06-11T20:11:40.782Z,20.50
2018-06-11T20:14:09.486Z,20.40
2018-06-11T20:16:38.213Z,20.40
2018-06-11T20:19:06.841Z,20.30
2018-06-11T20:21:35.536Z,20.20
2018-06-11T20:24:04.176Z,20.10
2018-06-11T20:26:32.789Z,20.10
2018-06-11T20:29:02.617Z,20.00
2018-06-11T20:31:31.305Z,19.90
2018-06-11T20:34:00.275Z,19.80
2018-06-11T20:36:28.970Z,19.60
2018-06-11T20:38:57.792Z,19.60
2018-06-11T20:41:26.697Z,19.40
2018-06-11T20:43:55.385Z,19.40
2018-06-11T20:46:24.091Z,19.20
2018-06-11T20:48:52.921Z,19.20
2018-06-11T20:51:21.556Z,19.10
2018-06-11T20:53:50.268Z,19.10
2018-06-11T20:56:19.057Z,19.00
2018-06-11T20:58:47.825Z,18.90
2018-06-11T21:01:16.671Z,18.80
2018-06-11T21:03:45.514Z,18.70
2018-06-11T21:06:14.182Z,18.60
2018-06-11T21:08:42.878Z,18.60
2018-06-11T21:11:12.225Z,18.40
2018-06-11T21:13:40.988Z,18.30
2018-06-11T21:16:09.704Z,18.20
2018-06-11T21:18:38.389Z,18.10
2018-06-11T21:21:07.127Z,18.10
2018-06-11T21:23:35.798Z,18.00
2018-06-11T21:26:04.531Z,17.90
2018-06-11T21:28:33.279Z,17.90
2018-06-11T21:31:02.461Z,17.80
2018-06-11T21:33:31.096Z,17.70
2018-06-11T21:35:59.780Z,17.70
2018-06-11T21:38:28.743Z,17.60
2018-06-11T21:40:57.332Z,17.60
2018-06-11T21:43:26.092Z,17.60
2018-06-11T21:45:54.721Z,17.50
2018-06-11T21:48:23.391Z,17.40
2018-06-11T21:50:52.038Z,17.30
2018-06-11T21:53:20.751Z,17.30
2018-06-11T21:55:49.393Z,17.20
2018-06-11T21:58:18.147Z,17.10
2018-06-11T22:00:47.028Z,17.10
2018-06-11T22:03:15.770Z,17.00
2018-06-11T22:05:44.350Z,17.00
2018-06-11T22:08:12.989Z,16.90
2018-06-11T22:10:41.665Z,16.80
2018-06-11T22:13:10.230Z,16.80
2018-06-11T22:15:38.873Z,16.70
2018-06-11T22:18:07.513Z,16.70
2018-06-11T22:20:36.153Z,16.60
2018-06-11T22:23:04.825Z,16.60
2018-06-11T22:25:33.433Z,16.50
2018-06-11T22:28:02.158Z,16.40
2018-06-11T22:30:30.834Z,16.30
2018-06-11T22:32:59.484Z,16.40
2018-06-11T22:35:28.086Z,16.30
2018-06-11T22:37:56.740Z,16.30
2018-06-11T22:40:25.417Z,16.30
2018-06-11T22:42:54.063Z,16.30
2018-06-11T22:45:22.661Z,16.20
2018-06-11T22:47:51.285Z,16.20
2018-06-11T22:50:19.871Z,16.20
2018-06-11T22:52:48.459Z,16.10
2018-06-11T22:55:17.171Z,16.10
2018-06-11T22:57:45.738Z,16.10
2018-06-11T23:00:16.825Z,16.00
2018-06-11T23:02:45.417Z,15.90
2018-06-11T23:05:14.101Z,15.90
2018-06-11T23:07:42.713Z,16.00
2018-06-11T23:10:11.310Z,16.00
2018-06-11T23:12:40.156Z,16.00
2018-06-11T23:15:08.835Z,16.00
2018-06-11T23:17:37.622Z,16.00
2018-06-11T23:20:06.336Z,15.90
2018-06-11T23:22:34.951Z,15.80
2018-06-11T23:25:03.641Z,15.80
2018-06-11T23:27:32.737Z,15.80
2018-06-11T23:30:01.388Z,15.80
2018-06-11T23:32:30.037Z,15.80
2018-06-11T23:34:58.755Z,15.70
2018-06-11T23:37:27.355Z,15.80
2018-06-11T23:39:55.994Z,15.70
2018-06-11T23:48:22.668Z,15.70
2018-06-11T23:50:51.270Z,15.70
2018-06-11T23:53:19.990Z,15.70
2018-06-11T23:55:48.653Z,15.70
